Time;durP1;ratioP1;P1;durP2;ratioP2;P2;SDS_P1;SDS_P2;PMS_P1;PMS_P2;Temp;Humidity;BMP_temperature;BMP_pressure;BME280_temperature;BME280_humidity;BME280_pressure;Samples;Min_cycle;Max_cycle;Signal;HPM_P1;HPM_P2
2022/09/11 00:26:19;;;;;;;11.22;6.58;;;;;;;14.71;75.62;99986.63;1730255;81;21010;-66
2022/09/11 00:28:45;;;;;;;15.95;7.80;;;;;;;14.67;75.85;99980.80;1696364;82;21117;-66
2022/09/11 00:31:14;;;;;;;9.63;6.72;;;;;;;14.63;76.15;99980.79;1699560;82;21011;-66
2022/09/11 01:46:25;;;;;;;15.18;7.92;;;;;;;14.89;79.63;99914.98;1729086;81;21244;-65
2022/09/11 01:49:05;;;;;;;13.32;7.35;;;;;;;14.93;79.60;99926.93;1697416;82;21040;-65
2022/09/11 01:51:33;;;;;;;11.20;8.18;;;;;;;14.97;79.61;99915.50;1704164;82;21058;-65
2022/09/11 01:54:02;;;;;;;21.70;9.43;;;;;;;15.00;79.79;99926.61;1676367;83;21104;-65
2022/09/11 01:56:34;;;;;;;18.32;9.00;;;;;;;14.99;79.96;99922.28;1692360;83;21087;-65
2022/09/11 01:59:05;;;;;;;13.45;8.88;;;;;;;14.99;79.91;99923.61;1684903;83;21113;-65
2022/09/11 02:01:34;;;;;;;13.53;8.30;;;;;;;15.03;79.91;99918.84;1678861;83;21585;-66
2022/09/11 02:04:09;;;;;;;15.75;9.68;;;;;;;15.07;79.90;99923.31;1669212;83;21147;-66
2022/09/11 02:06:45;;;;;;;15.65;8.90;;;;;;;15.10;80.04;99919.02;1663179;83;21091;-66
2022/09/11 02:09:14;;;;;;;17.42;8.78;;;;;;;15.10;80.09;99919.02;1742434;80;21042;-66
2022/09/11 02:11:41;;;;;;;11.97;7.87;;;;;;;15.05;80.29;99910.22;1711602;82;21265;-66
2022/09/11 02:14:22;;;;;;;15.40;8.00;;;;;;;15.07;80.25;99913.53;1705703;82;21512;-66
2022/09/11 02:16:59;;;;;;;11.95;7.42;;;;;;;15.10;80.09;99902.61;1699779;82;21121;-66
2022/09/11 02:19:27;;;;;;;12.45;7.62;;;;;;;15.13;80.07;99904.09;1686763;82;21090;-66
2022/09/11 02:21:54;;;;;;;14.13;7.42;;;;;;;15.17;80.19;99902.78;1688526;82;21109;-67
2022/09/11 02:24:21;;;;;;;14.20;7.22;;;;;;;15.20;80.23;99901.14;1697060;82;21755;-66
2022/09/11 02:26:54;;;;;;;10.82;7.60;;;;;;;15.20;80.42;99901.14;1695646;82;21015;-67
2022/09/11 02:29:23;;;;;;;12.25;7.10;;;;;;;15.18;80.38;99895.15;1669931;83;21030;-65
2022/09/11 02:31:51;;;;;;;9.08;7.25;;;;;;;15.17;80.35;99895.66;1704924;82;21072;-65
2022/09/11 02:34:20;;;;;;;10.95;7.20;;;;;;;15.19;80.28;99890.19;1724015;81;21074;-65
2022/09/11 02:37:02;;;;;;;12.60;6.45;;;;;;;15.26;80.36;99887.71;1725076;81;22216;-65
2022/09/11 02:39:41;;;;;;;10.93;6.60;;;;;;;15.28;80.22;99887.89;1727992;80;21063;-66
2022/09/11 02:42:32;;;;;;;10.05;7.53;;;;;;;15.30;80.38;99891.20;1729927;82;21094;-66
2022/09/11 02:45:34;;;;;;;9.98;6.92;;;;;;;15.29;80.38;99893.50;1725903;81;21019;-65
2022/09/11 02:48:18;;;;;;;9.45;6.08;;;;;;;15.29;80.49;99890.85;1723857;81;22331;-65
2022/09/11 02:51:00;;;;;;;8.63;6.12;;;;;;;15.35;80.28;99894.18;1664299;83;21167;-65
2022/09/11 02:53:41;;;;;;;9.65;6.53;;;;;;;15.36;80.29;99884.39;1695213;82;21048;-65
2022/09/11 02:56:36;;;;;;;8.85;6.58;;;;;;;15.37;80.24;99893.51;1695863;82;21042;-65
2022/09/11 02:59:11;;;;;;;10.82;6.10;;;;;;;15.35;80.36;99891.53;1693652;82;21054;-66
2022/09/11 03:01:52;;;;;;;8.75;5.92;;;;;;;15.33;80.39;99894.00;1691365;82;21050;-64
2022/09/11 03:04:23;;;;;;;7.60;5.67;;;;;;;15.35;80.40;99899.98;1726241;80;21162;-65
2022/09/11 03:06:52;;;;;;;9.70;6.47;;;;;;;15.34;80.43;99900.46;1695020;83;21067;-65
2022/09/11 03:09:19;;;;;;;8.30;6.00;;;;;;;15.37;80.50;99906.77;1694420;82;21098;-66
2022/09/11 03:11:46;;;;;;;10.78;6.17;;;;;;;15.33;80.66;99912.08;1696200;82;21076;-66
2022/09/11 03:14:13;;;;;;;9.73;5.75;;;;;;;15.33;80.89;99909.91;1672383;82;21039;-66
2022/09/11 03:16:41;;;;;;;9.30;5.78;;;;;;;15.37;80.93;99912.57;1694179;83;21156;-67
2022/09/11 03:19:09;;;;;;;7.92;5.45;;;;;;;15.40;80.90;99922.85;1733923;81;21016;-67
2022/09/11 03:21:36;;;;;;;6.47;5.12;;;;;;;15.43;81.00;99923.82;1728137;81;21024;-66
2022/09/11 03:24:04;;;;;;;13.03;5.87;;;;;;;15.46;81.11;99921.34;1731206;81;21014;-67
2022/09/11 03:26:36;;;;;;;7.67;5.78;;;;;;;15.46;81.23;99924.00;1736260;81;21102;-67
2022/09/11 03:29:00;;;;;;;9.30;5.70;;;;;;;15.44;81.36;99924.67;1729975;80;21049;-67
2022/09/11 03:31:27;;;;;;;8.23;5.58;;;;;;;15.44;81.32;99930.79;1732703;81;21476;-67
2022/09/11 03:33:54;;;;;;;8.15;5.55;;;;;;;15.47;81.22;99929.64;1726177;81;21063;-67
2022/09/11 03:36:21;;;;;;;6.95;5.03;;;;;;;15.49;81.26;99931.63;1733662;81;21036;-66
2022/09/11 03:38:48;;;;;;;7.78;4.87;;;;;;;15.52;81.35;99930.80;1733284;80;21956;-67
2022/09/11 03:41:15;;;;;;;7.12;5.15;;;;;;;15.57;81.42;99934.28;1729334;81;21252;-67
2022/09/11 03:43:42;;;;;;;6.97;5.20;;;;;;;15.59;81.45;99944.22;1705765;82;21076;-67
2022/09/11 03:46:09;;;;;;;6.62;4.40;;;;;;;15.59;81.58;99941.56;1733773;80;21040;-65
2022/09/11 03:48:36;;;;;;;9.43;3.30;;;;;;;15.55;81.64;99955.66;1690909;82;21140;-65
2022/09/11 03:51:04;;;;;;;4.78;2.40;;;;;;;15.55;81.21;99956.13;1734204;80;21051;-65
2022/09/11 03:53:31;;;;;;;4.83;2.58;;;;;;;15.53;80.77;99952.83;1733850;80;21307;-65
2022/09/11 03:55:59;;;;;;;5.67;2.47;;;;;;;15.49;79.71;99970.08;1733112;81;21110;-65
2022/09/11 03:58:26;;;;;;;4.83;2.60;;;;;;;15.34;79.09;99981.81;1690691;83;21062;-65
2022/09/11 04:00:52;;;;;;;4.65;2.35;;;;;;;15.17;79.38;99973.02;1689697;83;21108;-65
2022/09/11 04:03:19;;;;;;;4.03;2.05;;;;;;;15.07;79.67;99971.01;1731981;80;21366;-65
2022/09/11 04:06:00;;;;;;;3.90;1.80;;;;;;;15.04;79.82;99981.42;1696381;82;21836;-65
2022/09/11 04:08:32;;;;;;;4.20;2.22;;;;;;;15.00;79.97;99985.40;1685780;84;21116;-65
2022/09/11 04:11:05;;;;;;;4.45;2.58;;;;;;;14.96;80.04;99988.87;1697715;83;21543;-65
2022/09/11 04:13:35;;;;;;;4.30;2.15;;;;;;;14.91;80.18;99981.05;1691671;84;21094;-65
2022/09/11 04:16:13;;;;;;;4.85;2.50;;;;;;;14.86;80.34;99994.77;1681273;83;21530;-65
2022/09/11 04:18:41;;;;;;;;;;;;;;;14.86;80.27;99992.12;1681684;83;21177;-66
2022/09/11 04:21:10;;;;;;;4.15;1.82;;;;;;;14.89;79.95;99991.80;1687089;83;20553;-65
2022/09/11 04:23:37;;;;;;;4.17;2.37;;;;;;;14.89;79.90;99993.63;1684910;83;21072;-65
2022/09/11 04:26:19;;;;;;;4.37;2.30;;;;;;;14.89;79.89;99997.10;1683338;83;21106;-65
2022/09/11 04:28:48;;;;;;;4.70;2.60;;;;;;;14.86;79.85;99991.64;1683663;83;21143;-65
2022/09/11 04:31:16;;;;;;;5.25;2.12;;;;;;;14.84;80.17;99996.28;1683658;83;21534;-65
2022/09/11 04:33:43;;;;;;;4.67;2.27;;;;;;;14.83;80.29;99997.77;1685319;83;21043;-65
2022/09/11 04:36:12;;;;;;;3.55;1.57;;;;;;;14.79;79.95;100001.70;1679671;83;22463;-65
2022/09/11 04:38:40;;;;;;;8.58;1.70;;;;;;;14.72;78.62;100006.80;1666545;83;21678;-65
2022/09/11 04:41:08;;;;;;;3.45;1.40;;;;;;;14.55;77.27;100011.67;1682490;83;21055;-65
2022/09/11 04:43:38;;;;;;;3.62;1.50;;;;;;;14.39;77.54;100016.36;1678688;84;21096;-65
2022/09/11 04:46:09;;;;;;;3.08;1.10;;;;;;;14.29;77.56;100012.52;1687047;83;21032;-65
2022/09/11 04:48:41;;;;;;;3.00;1.27;;;;;;;14.21;77.43;100005.35;1666671;83;21448;-65
2022/09/11 04:51:06;;;;;;;3.33;1.35;;;;;;;14.20;77.00;100010.30;1677663;83;21480;-64
2022/09/11 04:53:33;;;;;;;3.60;1.17;;;;;;;14.16;76.65;100002.84;1682267;83;21040;-66
2022/09/11 04:56:06;;;;;;;3.27;1.10;;;;;;;14.06;76.88;100001.11;1681254;83;22289;-65
2022/09/11 04:58:34;;;;;;;2.62;1.00;;;;;;;14.01;77.11;100009.19;1681639;83;21539;-65
2022/09/11 05:01:10;;;;;;;3.10;1.10;;;;;;;13.99;77.12;100012.48;1683769;83;20997;-65
2022/09/11 05:03:38;;;;;;;4.45;1.42;;;;;;;14.01;76.59;100016.63;1681522;83;21047;-65
2022/09/11 05:06:06;;;;;;;3.90;1.25;;;;;;;14.02;76.25;100011.68;1729439;80;21059;-66
2022/09/11 05:08:33;;;;;;;3.17;1.20;;;;;;;13.98;76.45;100006.34;1689229;82;21157;-65
2022/09/11 05:11:00;;;;;;;3.10;1.22;;;;;;;13.97;76.82;100010.46;1697340;82;21087;-65
2022/09/11 05:13:28;;;;;;;6.08;1.32;;;;;;;13.99;76.89;100009.84;1693558;82;21063;-65
2022/09/11 05:16:04;;;;;;;3.87;1.30;;;;;;;14.05;76.51;100011.84;1697981;83;21511;-65
2022/09/11 05:18:31;;;;;;;3.47;1.37;;;;;;;14.08;76.39;100013.69;1689661;83;21118;-65
2022/09/11 05:21:06;;;;;;;3.12;1.15;;;;;;;14.06;76.41;100010.37;1683431;83;21132;-65
2022/09/11 05:23:34;;;;;;;5.30;1.30;;;;;;;14.05;76.49;100008.70;1683935;83;21054;-66
2022/09/11 05:26:02;;;;;;;3.98;1.32;;;;;;;14.06;76.32;100016.16;1663395;84;21130;-66
2022/09/11 05:28:30;;;;;;;2.65;1.05;;;;;;;14.08;76.04;100021.62;1680456;83;21036;-66
2022/09/11 05:30:57;;;;;;;3.20;1.35;;;;;;;14.10;76.32;100029.41;1678613;84;22343;-65
2022/09/11 05:33:25;;;;;;;3.42;1.22;;;;;;;14.13;76.60;100037.05;1737239;81;21205;-66
2022/09/11 05:35:54;;;;;;;2.90;1.07;;;;;;;14.16;76.59;100037.24;1735176;80;21816;-65
2022/09/11 05:38:22;;;;;;;2.35;0.90;;;;;;;14.17;76.45;100032.27;1731239;80;21082;-66
2022/09/11 05:40:50;;;;;;;6.62;1.30;;;;;;;14.22;76.25;100034.81;1735087;81;21433;-65
2022/09/11 05:43:18;;;;;;;4.33;1.12;;;;;;;14.25;76.07;100041.59;1748155;80;21074;-65
2022/09/11 05:45:55;;;;;;;2.72;0.93;;;;;;;14.27;76.03;100033.84;1736375;82;21518;-66
2022/09/11 05:48:22;;;;;;;3.55;1.00;;;;;;;14.25;76.09;100030.50;1732692;80;21046;-66
2022/09/11 05:51:02;;;;;;;2.77;1.30;;;;;;;14.20;76.04;100026.17;1733082;81;21019;-65
2022/09/11 05:53:32;;;;;;;5.08;1.45;;;;;;;14.14;76.17;100024.16;1738009;80;21047;-65
2022/09/11 05:56:17;;;;;;;4.25;1.05;;;;;;;14.16;76.21;100026.66;1730924;81;21064;-65
2022/09/11 05:58:45;;;;;;;3.15;1.35;;;;;;;14.18;75.87;100025.50;1687360;82;21222;-66
2022/09/11 06:01:16;;;;;;;3.40;1.22;;;;;;;14.16;75.63;100019.54;1732845;81;21023;-66
2022/09/11 06:03:47;;;;;;;3.02;1.22;;;;;;;14.13;75.72;100021.17;1732014;80;21030;-67
2022/09/11 06:06:13;;;;;;;2.52;1.00;;;;;;;14.07;75.64;100015.16;1735824;80;21786;-67
2022/09/11 06:08:46;;;;;;;2.85;1.22;;;;;;;14.04;75.26;100029.55;1732662;80;21039;-66
2022/09/11 06:11:12;;;;;;;3.77;1.37;;;;;;;14.06;74.98;100022.78;1699103;82;21308;-66
2022/09/11 06:13:41;;;;;;;3.70;1.20;;;;;;;14.04;74.48;100017.64;1703284;82;21054;-66
2022/09/11 06:16:11;;;;;;;4.08;1.62;;;;;;;14.02;74.61;100022.73;1701909;82;21048;-67
2022/09/11 06:18:38;;;;;;;3.12;1.47;;;;;;;13.98;74.77;100024.04;1696887;82;21528;-66
2022/09/11 06:21:10;;;;;;;3.45;1.50;;;;;;;13.95;74.87;100023.84;1697170;82;21045;-67
2022/09/11 06:23:38;;;;;;;3.95;1.50;;;;;;;13.98;74.86;100021.39;1681259;83;21118;-67
2022/09/11 06:26:10;;;;;;;4.35;1.75;;;;;;;13.99;74.79;100031.00;1705075;82;21527;-66
2022/09/11 06:28:38;;;;;;;4.15;1.70;;;;;;;13.97;74.86;100032.95;1737671;80;21047;-66
2022/09/11 06:31:09;;;;;;;3.62;1.55;;;;;;;13.94;74.45;100028.81;1732003;81;21048;-64
2022/09/11 06:33:37;;;;;;;3.17;1.20;;;;;;;13.92;74.41;100036.89;1729342;81;21076;-66
2022/09/11 06:36:10;;;;;;;3.35;1.40;;;;;;;13.96;74.54;100029.48;1695904;82;21598;-67
2022/09/11 06:38:39;;;;;;;4.17;1.70;;;;;;;14.02;74.58;100030.67;1700254;82;21085;-66
2022/09/11 06:41:11;;;;;;;4.35;1.85;;;;;;;14.06;74.51;100030.72;1697345;82;21634;-67
2022/09/11 06:43:39;;;;;;;2.75;1.30;;;;;;;14.09;74.67;100031.23;1694912;82;21034;-67
2022/09/11 06:46:11;;;;;;;4.15;1.67;;;;;;;14.10;74.67;100022.80;1695072;82;21531;-67
2022/09/11 06:48:44;;;;;;;4.10;1.40;;;;;;;14.11;74.43;100030.58;1683063;83;21218;-67
2022/09/11 06:51:13;;;;;;;4.30;1.50;;;;;;;14.17;73.71;100042.86;1680464;83;21493;-68
2022/09/11 06:53:40;;;;;;;3.83;1.60;;;;;;;14.19;73.39;100043.52;1681605;83;22209;-65
2022/09/11 06:56:11;;;;;;;3.67;1.75;;;;;;;14.19;73.29;100043.05;1686632;83;21063;-66
2022/09/11 06:58:40;;;;;;;3.60;1.50;;;;;;;14.19;73.43;100056.28;1682665;83;21012;-66
2022/09/11 07:01:15;;;;;;;3.33;1.30;;;;;;;14.21;73.45;100054.30;1680286;83;21592;-66
2022/09/11 07:03:43;;;;;;;4.00;1.62;;;;;;;14.27;73.44;100060.31;1677628;83;21127;-68
2022/09/11 07:06:13;;;;;;;3.95;1.15;;;;;;;14.37;73.08;100056.72;1679596;83;21145;-68
2022/09/11 07:08:41;;;;;;;3.27;1.40;;;;;;;14.42;72.28;100055.76;1678298;83;21056;-67
2022/09/11 07:11:08;;;;;;;3.62;1.17;;;;;;;14.40;72.35;100045.33;1681779;83;21039;-66
2022/09/11 07:13:37;;;;;;;3.10;1.40;;;;;;;14.41;72.28;100050.15;1678953;83;21156;-66
2022/09/11 07:16:07;;;;;;;3.40;1.17;;;;;;;14.37;71.25;100056.72;1678445;83;21134;-67
2022/09/11 07:18:40;;;;;;;2.95;1.25;;;;;;;14.27;70.98;100057.67;1682913;83;21528;-67
2022/09/11 07:21:23;;;;;;;3.05;0.90;;;;;;;14.28;71.30;100065.92;1713009;81;21553;-70
2022/09/11 07:23:53;;;;;;;3.33;1.17;;;;;;;14.40;71.07;100070.97;1730111;81;21073;-66
2022/09/11 07:26:21;;;;;;;2.58;1.17;;;;;;;14.46;71.11;100072.51;1728030;81;22161;-66
2022/09/11 07:28:50;;;;;;;3.42;1.50;;;;;;;14.49;71.11;100072.67;1689689;82;21113;-66
2022/09/11 07:31:19;;;;;;;3.37;1.27;;;;;;;14.55;70.97;100072.56;1697579;82;21058;-66
2022/09/11 07:33:49;;;;;;;4.15;1.67;;;;;;;14.56;70.92;100072.41;1699216;82;21047;-66
2022/09/11 07:36:19;;;;;;;3.62;1.50;;;;;;;14.60;70.92;100079.07;1696014;82;21164;-66
2022/09/11 07:38:48;;;;;;;4.50;1.80;;;;;;;14.67;71.11;100068.17;1693168;82;21894;-67
2022/09/11 07:41:16;;;;;;;3.90;1.70;;;;;;;14.72;70.89;100066.39;1687443;82;21120;-66
2022/09/11 07:43:44;;;;;;;4.95;2.00;;;;;;;14.71;71.20;100060.77;1666194;83;21103;-67
2022/09/11 07:46:11;;;;;;;4.00;1.98;;;;;;;14.73;71.46;100059.30;1730452;80;21138;-67
2022/09/11 07:48:38;;;;;;;3.50;1.60;;;;;;;14.76;71.69;100053.19;1693272;82;21058;-66
2022/09/11 07:51:06;;;;;;;5.03;1.98;;;;;;;14.79;70.89;100054.20;1721279;80;21154;-66
2022/09/11 07:53:37;;;;;;;3.65;1.67;;;;;;;14.86;70.17;100047.27;1735132;81;22180;-67
2022/09/11 07:56:07;;;;;;;3.72;1.85;;;;;;;14.86;69.94;100043.30;1725839;81;21085;-67
2022/09/11 07:58:37;;;;;;;4.50;1.70;;;;;;;14.83;69.98;100050.73;1727252;80;21110;-67
2022/09/11 08:01:08;;;;;;;5.60;2.62;;;;;;;14.77;70.16;100054.00;1714646;81;21672;-67
2022/09/11 08:03:35;;;;;;;3.80;1.80;;;;;;;14.68;70.05;100055.28;1725359;81;21125;-67
2022/09/11 08:06:05;;;;;;;3.72;1.77;;;;;;;14.67;69.92;100060.73;1720672;81;21023;-67
2022/09/11 08:08:33;;;;;;;3.08;1.50;;;;;;;14.75;69.58;100054.16;1719805;81;21043;-67
2022/09/11 08:11:11;;;;;;;3.90;1.57;;;;;;;14.85;69.67;100053.55;1724598;81;21040;-67
2022/09/11 08:13:38;;;;;;;3.60;1.62;;;;;;;14.93;69.76;100056.73;1724121;81;21024;-67
2022/09/11 08:16:06;;;;;;;3.62;1.52;;;;;;;15.02;69.38;100053.11;1692079;82;22227;-67
2022/09/11 08:18:36;;;;;;;4.08;1.85;;;;;;;15.05;68.79;100046.68;1696552;82;21180;-67
2022/09/11 08:21:07;;;;;;;4.22;1.87;;;;;;;15.07;69.00;100043.87;1672247;84;21360;-67
2022/09/11 08:23:35;;;;;;;5.45;1.57;;;;;;;15.12;69.05;100040.25;1666597;83;21612;-66
2022/09/11 08:26:05;;;;;;;4.55;1.50;;;;;;;15.21;68.76;100031.31;1684968;83;21059;-66
2022/09/11 08:28:32;;;;;;;5.17;1.70;;;;;;;15.27;68.41;100033.83;1678342;84;21224;-67
2022/09/11 08:31:00;;;;;;;4.20;1.70;;;;;;;15.28;68.44;100041.63;1673799;84;21067;-67
2022/09/11 08:33:29;;;;;;;4.30;2.10;;;;;;;15.29;68.25;100039.80;1659551;84;21071;-66
2022/09/11 08:35:59;;;;;;;4.50;2.15;;;;;;;15.33;68.56;100036.67;1691034;83;21051;-66
2022/09/11 08:38:26;;;;;;;4.35;2.12;;;;;;;15.37;67.77;100038.49;1673219;83;21346;-66
2022/09/11 08:40:53;;;;;;;4.37;1.70;;;;;;;15.36;67.70;100038.97;1680541;83;21577;-67
2022/09/11 08:43:31;;;;;;;3.45;1.60;;;;;;;15.41;68.04;100037.98;1687530;83;21074;-67
2022/09/11 08:46:03;;;;;;;3.67;1.72;;;;;;;15.49;67.83;100039.83;1691977;83;21020;-67
2022/09/11 08:48:38;;;;;;;3.77;1.80;;;;;;;15.54;67.80;100040.67;1665908;84;21113;-66
2022/09/11 08:51:08;;;;;;;4.08;1.80;;;;;;;15.57;67.87;100044.33;1684902;83;21091;-67
2022/09/11 08:53:35;;;;;;;4.67;1.72;;;;;;;15.58;67.76;100042.84;1666164;83;21218;-65
2022/09/11 08:59:32;;;;;;;6.40;2.27;;;;;;;15.57;67.48;100040.36;1766199;79;21094;-62
2022/09/11 09:02:13;;;;;;;4.12;1.70;;;;;;;15.63;67.71;100037.53;1762619;79;21064;-63
2022/09/11 09:05:21;;;;;;;4.03;1.72;;;;;;;15.76;67.00;100038.73;1759756;79;21081;-65
2022/09/11 09:07:56;;;;;;;4.37;2.33;;;;;;;15.89;66.81;100038.75;1756012;80;21180;-59
2022/09/11 09:13:20;;;;;;;5.47;2.62;;;;;;;16.02;65.73;100037.75;1796526;78;22711;-65
2022/09/11 09:16:20;;;;;;;4.42;2.33;;;;;;;16.03;65.39;100040.72;1769123;79;21458;-60
2022/09/11 09:19:14;;;;;;;5.37;2.62;;;;;;;15.93;65.12;100034.76;1771282;78;21235;-61
2022/09/11 09:22:05;;;;;;;5.10;2.12;;;;;;;15.87;65.81;100034.09;1776922;79;20939;-65
2022/09/11 09:24:41;;;;;;;4.47;2.27;;;;;;;15.90;66.17;100031.95;1767367;78;21753;-69
2022/09/11 09:27:12;;;;;;;4.72;2.37;;;;;;;15.98;66.42;100038.56;1764975;78;21005;-67
2022/09/11 09:29:39;;;;;;;4.42;2.67;;;;;;;16.00;65.78;100041.05;1748241;80;21103;-62
2022/09/11 09:32:19;;;;;;;4.83;2.87;;;;;;;16.00;66.42;100039.72;1773366;79;21119;-61
2022/09/11 09:34:47;;;;;;;5.70;3.27;;;;;;;16.01;66.14;100040.06;1770946;79;20994;-60
2022/09/11 09:37:21;;;;;;;7.10;3.90;;;;;;;15.96;66.27;100039.23;1768563;80;21124;-61
2022/09/11 09:39:48;;;;;;;6.37;2.85;;;;;;;15.88;66.22;100039.73;1770466;78;21089;-62
2022/09/11 09:42:41;;;;;;;6.55;3.60;;;;;;;15.86;66.51;100044.38;1771926;78;21125;-62
2022/09/11 09:45:20;;;;;;;5.30;2.92;;;;;;;15.91;66.73;100041.55;1769352;78;21892;-63
2022/09/11 09:47:47;;;;;;;5.30;3.17;;;;;;;15.94;66.37;100041.73;1767577;79;21078;-62
2022/09/11 09:50:22;;;;;;;5.15;2.85;;;;;;;15.94;66.20;100032.45;1750866;80;21088;-62
2022/09/11 09:52:49;;;;;;;5.58;3.75;;;;;;;15.95;66.45;100029.63;1771538;79;21101;-62
2022/09/11 09:55:17;;;;;;;5.87;2.95;;;;;;;15.97;66.76;100030.80;1769756;79;21073;-69
2022/09/11 09:57:44;;;;;;;5.67;3.05;;;;;;;16.00;66.51;100032.27;1769593;80;21248;-66
2022/09/11 10:00:16;;;;;;;6.10;3.42;;;;;;;16.07;67.33;100037.23;1771039;78;21022;-66
2022/09/11 10:02:54;;;;;;;5.67;3.00;;;;;;;16.18;66.42;100042.72;1764948;79;21177;-61
2022/09/11 10:05:35;;;;;;;5.72;3.10;;;;;;;16.23;66.16;100037.73;1768404;78;21070;-62
2022/09/11 10:08:06;;;;;;;4.97;2.92;;;;;;;16.25;67.09;100037.88;1742474;80;21069;-61
2022/09/11 10:10:36;;;;;;;7.78;3.58;;;;;;;16.27;67.46;100035.91;1759484;80;21081;-61
2022/09/11 10:13:07;;;;;;;6.10;3.62;;;;;;;16.28;67.41;100032.23;1749793;79;21100;-61
2022/09/11 10:15:37;;;;;;;5.95;2.83;;;;;;;16.27;67.53;100039.89;1745504;80;21095;-61
2022/09/11 10:18:34;;;;;;;4.78;3.05;;;;;;;16.29;67.36;100039.69;1763107;79;21567;-61
2022/09/11 10:21:16;;;;;;;5.30;3.50;;;;;;;16.34;67.60;100030.75;1755096;80;21105;-61
2022/09/11 10:23:56;;;;;;;7.67;3.77;;;;;;;16.39;67.50;100034.20;1758363;79;22629;-61
2022/09/11 10:26:36;;;;;;;6.80;4.03;;;;;;;16.38;67.51;100031.23;1730786;80;21088;-62
2022/09/11 10:29:21;;;;;;;5.83;3.62;;;;;;;16.37;67.56;100030.39;1753909;80;21118;-59
2022/09/11 10:31:50;;;;;;;7.30;5.00;;;;;;;16.39;67.54;100028.89;1760790;79;21043;-61
2022/09/11 10:34:23;;;;;;;6.55;3.87;;;;;;;16.42;67.80;100020.09;1756166;79;21097;-61
2022/09/11 10:36:59;;;;;;;6.30;3.83;;;;;;;16.47;67.56;100013.77;1761083;80;21880;-61
2022/09/11 10:39:29;;;;;;;5.22;3.37;;;;;;;16.59;67.48;100012.08;1751748;80;21096;-61
2022/09/11 10:41:58;;;;;;;6.55;3.90;;;;;;;16.72;67.36;100011.03;1761896;79;21072;-60
2022/09/11 10:44:25;;;;;;;7.40;4.65;;;;;;;16.78;67.13;100010.36;1752574;80;21068;-60
2022/09/11 10:47:28;;;;;;;8.05;3.80;;;;;;;16.80;67.06;100009.68;1757723;80;21010;-61
2022/09/11 10:50:19;;;;;;;4.58;2.55;;;;;;;16.82;66.34;100009.00;1735780;80;21158;-61
2022/09/11 10:53:06;;;;;;;5.05;2.90;;;;;;;16.79;65.45;100006.68;1758563;79;21121;-62
2022/09/11 10:55:36;;;;;;;4.92;2.98;;;;;;;16.73;64.10;100006.06;1756612;79;21140;-61
2022/09/11 10:58:08;;;;;;;5.12;3.05;;;;;;;16.64;64.25;99995.98;1752462;80;21569;-62
2022/09/11 11:00:37;;;;;;;4.62;2.50;;;;;;;16.66;64.16;100001.09;1760654;79;21084;-62
2022/09/11 11:03:15;;;;;;;5.10;2.98;;;;;;;16.66;64.01;99995.30;1755094;80;21518;-60
2022/09/11 11:06:02;;;;;;;4.22;2.40;;;;;;;16.73;63.85;99996.77;1755519;80;21074;-61
2022/09/11 11:08:58;;;;;;;5.40;3.47;;;;;;;16.86;63.32;99987.77;1736423;79;21667;-62
2022/09/11 11:11:48;;;;;;;;;;;;;;;17.05;63.36;99993.66;1754474;79;21488;-61
2022/09/11 11:14:47;;;;;;;8.35;4.97;;;;;;;17.18;64.29;99991.25;1748472;80;21126;-61
2022/09/11 11:18:10;;;;;;;8.23;5.58;;;;;;;17.23;64.72;99993.36;1748592;80;21139;-60
2022/09/11 11:20:59;;;;;;;7.53;5.12;;;;;;;17.21;64.95;99985.56;1738760;81;21569;-61
2022/09/11 11:23:46;;;;;;;9.33;5.15;;;;;;;17.12;64.77;99996.45;1698984;82;21701;-60
2022/09/11 11:26:49;;;;;;;7.97;5.58;;;;;;;17.08;64.57;100001.29;1729446;80;21093;-61
2022/09/11 11:29:39;;;;;;;7.45;4.65;;;;;;;17.04;64.51;100004.77;1752814;80;21167;-60
2022/09/11 11:32:31;;;;;;;8.28;4.75;;;;;;;16.99;64.96;99997.00;1749692;80;21324;-62
2022/09/11 11:35:38;;;;;;;6.25;4.53;;;;;;;16.98;65.02;99995.34;1750709;80;21655;-61
2022/09/11 11:38:19;;;;;;;6.83;4.50;;;;;;;16.97;65.22;99993.70;1749373;80;21161;-62
2022/09/11 11:40:55;;;;;;;7.72;5.00;;;;;;;16.95;65.25;99992.54;1754703;80;21613;-61
2022/09/11 11:43:26;;;;;;;8.15;4.90;;;;;;;16.88;65.59;99999.05;1747738;80;21079;-62
2022/09/11 11:46:01;;;;;;;7.10;4.33;;;;;;;16.89;65.66;99993.22;1748154;80;21636;-62
2022/09/11 11:48:45;;;;;;;7.40;4.53;;;;;;;16.97;65.52;99993.70;1753531;80;21058;-64
2022/09/11 11:51:26;;;;;;;7.75;4.35;;;;;;;16.99;65.16;99993.83;1733673;81;21613;-63
2022/09/11 11:54:16;;;;;;;6.25;4.37;;;;;;;16.96;65.53;99995.50;1757906;81;21117;-65
2022/09/11 11:56:54;;;;;;;6.28;4.15;;;;;;;16.94;65.43;99997.52;1755719;80;21082;-65
2022/09/11 11:59:45;;;;;;;6.65;4.65;;;;;;;16.90;65.44;100002.86;1740807;80;21100;-66
2022/09/11 12:02:23;;;;;;;6.37;5.00;;;;;;;16.85;65.48;100000.72;1754277;80;21050;-65
2022/09/11 12:04:57;;;;;;;6.22;4.58;;;;;;;16.78;65.18;100006.37;1755604;80;20955;-63
2022/09/11 12:07:35;;;;;;;6.50;4.50;;;;;;;16.77;65.12;99997.24;1748138;80;21063;-63
2022/09/11 12:10:06;;;;;;;6.62;4.62;;;;;;;16.83;65.02;100001.37;1751584;81;21055;-63
2022/09/11 12:12:35;;;;;;;7.60;4.83;;;;;;;16.83;64.91;99994.72;1754708;79;22286;-62
2022/09/11 12:15:12;;;;;;;6.78;5.15;;;;;;;16.85;65.29;99995.41;1753321;79;21077;-63
2022/09/11 12:17:39;;;;;;;6.12;4.60;;;;;;;16.86;65.67;99992.23;1756568;79;21109;-63
2022/09/11 12:20:16;;;;;;;6.75;5.08;;;;;;;16.83;65.34;99990.73;1754087;80;21125;-62
2022/09/11 12:22:46;;;;;;;6.78;5.12;;;;;;;16.82;64.67;99986.41;1751720;79;21571;-64
2022/09/11 12:25:27;;;;;;;6.87;5.53;;;;;;;16.82;64.64;99985.09;1754923;79;21098;-65
2022/09/11 12:28:22;;;;;;;6.87;5.12;;;;;;;16.81;64.52;99985.25;1680294;82;21099;-64
2022/09/11 12:31:05;;;;;;;8.18;5.50;;;;;;;16.79;64.18;99988.08;1750438;80;21062;-63
2022/09/11 12:33:49;;;;;;;7.72;4.83;;;;;;;16.75;63.97;99981.47;1758782;79;21743;-63
2022/09/11 12:36:29;;;;;;;7.85;5.37;;;;;;;16.74;63.90;99986.45;1754630;80;21525;-62
2022/09/11 12:39:17;;;;;;;6.97;5.15;;;;;;;16.78;63.92;99981.61;1759267;79;21185;-63
2022/09/11 12:41:44;;;;;;;8.53;5.28;;;;;;;16.81;64.12;99982.59;1752828;80;21853;-64
2022/09/11 12:44:47;;;;;;;7.03;5.58;;;;;;;16.80;63.96;99983.11;1757803;79;21173;-63
2022/09/11 12:47:40;;;;;;;7.30;5.45;;;;;;;16.80;64.31;99977.80;1693404;80;21596;-62
2022/09/11 12:50:17;;;;;;;6.58;5.08;;;;;;;16.81;64.23;99982.59;1759764;80;21107;-61
2022/09/11 12:52:49;;;;;;;7.35;5.50;;;;;;;16.80;64.61;99969.83;1751684;80;21096;-62
2022/09/11 12:55:32;;;;;;;7.60;5.35;;;;;;;16.80;64.46;99976.47;1758265;80;21092;-63
2022/09/11 12:58:02;;;;;;;7.37;4.87;;;;;;;16.79;64.64;99964.17;1757480;79;21625;-63
2022/09/11 13:00:39;;;;;;;6.60;5.03;;;;;;;16.87;64.97;99966.82;1753127;79;21548;-62
2022/09/11 13:03:08;;;;;;;7.00;5.42;;;;;;;16.96;64.45;99962.28;1754865;80;21051;-69
2022/09/11 13:05:37;;;;;;;8.60;5.05;;;;;;;17.03;65.06;99963.74;1753335;79;21207;-70
2022/09/11 13:08:21;;;;;;;6.60;4.80;;;;;;;17.08;64.88;99962.23;1759132;79;21070;-69
2022/09/11 13:10:47;;;;;;;7.95;5.33;;;;;;;17.13;64.26;99958.20;1695194;82;21102;-67
2022/09/11 13:13:39;;;;;;;6.80;4.83;;;;;;;17.16;63.74;99961.34;1751662;80;21059;-66
2022/09/11 13:16:24;;;;;;;7.62;5.25;;;;;;;17.19;63.31;99959.66;1753182;80;21070;-63
2022/09/11 13:18:58;;;;;;;7.37;5.75;;;;;;;17.22;63.59;99950.01;1764821;79;21137;-67
2022/09/11 13:21:24;;;;;;;6.87;5.65;;;;;;;17.29;63.35;99951.97;1757567;79;21070;-66
2022/09/11 13:23:51;;;;;;;7.40;5.55;;;;;;;17.35;62.80;99951.23;1724942;81;21043;-67
2022/09/11 13:26:30;;;;;;;8.15;5.45;;;;;;;17.43;62.65;99944.53;1751608;80;21082;-65
2022/09/11 13:28:57;;;;;;;6.08;4.40;;;;;;;17.61;62.17;99938.40;1760764;80;21553;-70
2022/09/11 13:31:34;;;;;;;9.08;5.35;;;;;;;18.75;61.20;99939.52;1751700;79;21172;-68
2022/09/11 13:34:05;;;;;;;6.50;5.30;;;;;;;20.53;56.51;99935.56;1757393;80;21062;-71
2022/09/11 13:36:33;;;;;;;7.22;4.85;;;;;;;22.54;52.52;99916.41;1758096;79;21072;-70
2022/09/11 13:39:01;;;;;;;6.28;4.60;;;;;;;24.43;47.72;99900.77;1757016;80;21550;-71
2022/09/11 13:41:29;;;;;;;6.40;4.62;;;;;;;26.01;44.83;99894.27;1757951;79;21108;-69
2022/09/11 13:43:59;;;;;;;6.90;4.65;;;;;;;27.15;42.28;99886.45;1759766;80;21089;-70